Time;durP1;ratioP1;P1;durP2;ratioP2;P2;SDS_P1;SDS_P2;PMS_P1;PMS_P2;Temp;Humidity;BMP_temperature;BMP_pressure;BME280_temperature;BME280_humidity;BME280_pressure;Samples;Min_cycle;Max_cycle;Signal;HPM_P1;HPM_P2
2021/06/18 05:01:19;;;;;;;10.48;7.35;;;;;;;16.57;97.90;95037.13;5718317;23;20102;-71
2021/06/18 05:03:45;;;;;;;9.75;6.50;;;;;;;16.63;97.00;95038.13;4927223;29;20043;-71
2021/06/18 05:06:10;;;;;;;7.43;6.55;;;;;;;16.79;96.91;95035.06;4950936;29;20020;-71
2021/06/18 05:08:35;;;;;;;11.02;8.30;;;;;;;16.77;96.72;95030.03;4931844;29;20031;-71
2021/06/18 05:11:03;;;;;;;11.15;7.45;;;;;;;17.31;96.48;95040.03;4950320;29;20094;-71
2021/06/18 05:13:29;;;;;;;12.13;7.35;;;;;;;17.00;93.82;95037.38;4915849;29;20467;-71
2021/06/18 05:15:54;;;;;;;9.57;8.10;;;;;;;17.59;94.21;95038.91;4933107;29;20039;-71
2021/06/18 05:18:20;;;;;;;11.60;8.50;;;;;;;17.37;94.32;95047.06;4932483;29;20387;-72
2021/06/18 05:20:45;;;;;;;15.63;9.10;;;;;;;17.47;92.55;95035.31;4932782;29;20063;-71
2021/06/18 05:23:11;;;;;;;15.13;8.82;;;;;;;17.53;92.28;95037.88;4917693;29;20097;-71
2021/06/18 05:25:36;;;;;;;14.18;7.70;;;;;;;17.73;92.12;95037.78;4916014;29;20020;-72
2021/06/18 05:28:01;;;;;;;12.23;7.65;;;;;;;17.82;89.68;95039.94;4950269;29;20114;-72
2021/06/18 05:30:27;;;;;;;15.15;8.27;;;;;;;17.78;90.26;95037.97;4933030;28;20098;-73
2021/06/18 05:32:52;;;;;;;13.93;8.32;;;;;;;17.75;92.75;95027.94;4969731;28;20034;-72
2021/06/18 05:35:18;;;;;;;10.45;7.75;;;;;;;17.89;90.27;95029.41;4950400;28;20432;-72
2021/06/18 05:37:44;;;;;;;10.13;7.53;;;;;;;17.83;89.87;95028.44;4968567;28;20027;-72
2021/06/18 05:40:09;;;;;;;12.45;7.97;;;;;;;18.06;90.27;95030.50;4951202;28;20477;-73
2021/06/18 05:42:35;;;;;;;15.43;8.15;;;;;;;18.39;87.39;95025.75;4934640;28;20085;-73
2021/06/18 05:45:01;;;;;;;10.45;7.43;;;;;;;18.51;88.52;95038.16;4936512;28;20102;-73
2021/06/18 05:47:27;;;;;;;11.40;7.40;;;;;;;18.79;87.14;95030.59;4950192;28;20401;-73
2021/06/18 05:49:52;;;;;;;11.80;7.45;;;;;;;18.35;88.89;95039.50;4936489;28;20050;-72
2021/06/18 05:52:18;;;;;;;9.95;6.78;;;;;;;18.03;88.23;95028.31;4949555;28;20058;-73
2021/06/18 05:54:43;;;;;;;11.52;7.88;;;;;;;18.60;89.49;95037.66;4920419;28;20082;-72
2021/06/18 05:57:09;;;;;;;11.13;7.00;;;;;;;18.78;87.38;95029.00;4967511;28;20507;-73
2021/06/18 05:59:34;;;;;;;9.07;7.10;;;;;;;18.58;87.87;95031.03;4935282;28;20034;-73
2021/06/18 06:02:00;;;;;;;11.35;8.07;;;;;;;18.21;88.13;95030.16;4935259;28;20101;-73
2021/06/18 06:04:25;;;;;;;10.55;7.57;;;;;;;18.54;88.39;95033.28;4950112;28;20030;-72
2021/06/18 06:06:51;;;;;;;9.20;7.28;;;;;;;18.68;89.74;95033.97;4929863;28;20038;-72
2021/06/18 06:09:16;;;;;;;11.23;7.75;;;;;;;19.28;86.70;95024.34;4962564;28;20614;-72
2021/06/18 06:11:42;;;;;;;9.80;7.18;;;;;;;19.56;84.99;95035.09;4967348;28;20475;-72
2021/06/18 06:14:07;;;;;;;9.43;8.27;;;;;;;20.30;83.32;95036.41;4948165;28;20030;-73
2021/06/18 06:16:34;;;;;;;9.05;7.13;;;;;;;20.84;81.24;95025.47;4935477;28;20030;-73
2021/06/18 06:19:00;;;;;;;7.90;6.70;;;;;;;20.46;81.18;95030.44;4950191;28;20035;-72
2021/06/18 06:21:25;;;;;;;9.52;7.00;;;;;;;19.80;82.31;95030.72;4912773;29;20390;-72
2021/06/18 06:23:51;;;;;;;7.55;6.80;;;;;;;20.49;81.97;95025.53;4896165;29;20039;-72
2021/06/18 06:26:18;;;;;;;6.97;6.25;;;;;;;20.40;78.22;95024.28;4911015;29;20090;-72
2021/06/18 06:28:43;;;;;;;8.15;6.82;;;;;;;20.35;80.94;95018.91;4930273;29;20106;-73
2021/06/18 06:31:09;;;;;;;10.32;6.57;;;;;;;20.57;79.93;95024.38;4928326;29;20107;-73
2021/06/18 06:33:34;;;;;;;7.72;6.93;;;;;;;20.50;79.72;95013.97;4912888;29;20034;-73
2021/06/18 06:36:00;;;;;;;9.55;6.63;;;;;;;20.38;80.35;95020.28;4939237;28;20071;-74
2021/06/18 06:38:25;;;;;;;7.85;6.28;;;;;;;21.06;79.88;95017.78;4943587;29;20541;-73
2021/06/18 06:40:51;;;;;;;6.63;5.90;;;;;;;21.75;76.35;95007.97;4937919;28;20435;-73
2021/06/18 06:43:16;;;;;;;7.63;5.80;;;;;;;21.37;74.74;95004.16;4930499;28;20421;-73
2021/06/18 06:45:43;;;;;;;9.57;7.03;;;;;;;21.31;75.65;95005.13;4918529;28;20057;-74
2021/06/18 06:48:08;;;;;;;8.40;6.88;;;;;;;22.23;73.89;95000.34;4914049;28;20485;-73
2021/06/18 06:50:34;;;;;;;13.05;6.53;;;;;;;23.06;72.87;94994.06;4941419;29;20042;-75
2021/06/18 06:52:59;;;;;;;7.05;6.35;;;;;;;23.59;68.21;94996.78;4914226;29;20027;-75
2021/06/18 06:55:25;;;;;;;7.82;6.00;;;;;;;23.65;66.16;94995.00;4931732;29;20039;-74
2021/06/18 06:57:51;;;;;;;7.93;7.07;;;;;;;23.56;66.80;94992.00;4931035;29;20031;-75
2021/06/18 07:00:17;;;;;;;9.68;7.47;;;;;;;23.53;67.35;94994.34;4930886;29;20081;-74
2021/06/18 07:02:43;;;;;;;10.30;8.60;;;;;;;22.13;70.19;94973.78;4911660;29;20047;-74
2021/06/18 07:05:09;;;;;;;9.18;8.27;;;;;;;20.90;75.41;94989.53;4909885;29;20031;-76
2021/06/18 07:07:35;;;;;;;10.73;8.02;;;;;;;21.34;77.36;94988.03;4911827;29;20036;-75
2021/06/18 07:10:01;;;;;;;8.07;7.28;;;;;;;22.17;74.00;94993.38;4911744;29;20032;-75
2021/06/18 07:12:27;;;;;;;7.57;6.88;;;;;;;22.08;72.24;94989.56;4903023;29;20035;-76
2021/06/18 07:14:55;;;;;;;12.95;8.55;;;;;;;22.49;70.92;94991.75;4918254;29;20485;-75
2021/06/18 07:17:21;;;;;;;9.32;8.43;;;;;;;21.86;73.14;94976.28;4932323;28;20461;-75
2021/06/18 07:19:47;;;;;;;10.10;9.13;;;;;;;22.12;71.31;94969.56;4895974;29;20034;-76
2021/06/18 07:22:16;;;;;;;12.75;9.80;;;;;;;23.27;68.00;94968.66;4928922;29;20107;-77
2021/06/18 07:24:41;;;;;;;10.73;8.87;;;;;;;26.43;60.84;94958.97;4932310;29;20031;-75
2021/06/18 07:27:06;;;;;;;10.80;8.57;;;;;;;32.68;44.53;94967.41;4932308;29;20034;-75
2021/06/18 07:29:32;;;;;;;8.93;8.07;;;;;;;29.57;49.21;94966.16;4938372;29;20039;-77
2021/06/18 07:31:57;;;;;;;7.90;7.15;;;;;;;28.95;51.91;94959.19;4921254;29;20460;-76
2021/06/18 07:34:24;;;;;;;10.85;8.27;;;;;;;28.19;54.56;94965.31;4919996;29;20036;-78
2021/06/18 07:36:50;;;;;;;8.65;7.85;;;;;;;24.93;60.07;94962.00;4908202;29;20504;-77
2021/06/18 07:39:15;;;;;;;8.13;7.30;;;;;;;24.75;62.18;94964.28;4914529;29;20035;-77
2021/06/18 07:41:41;;;;;;;8.25;7.55;;;;;;;25.60;61.30;94963.78;4940899;29;20584;-78
2021/06/18 07:44:06;;;;;;;7.25;6.18;;;;;;;26.05;58.84;94960.34;4912151;29;20032;-79
2021/06/18 07:46:32;;;;;;;7.47;6.32;;;;;;;25.96;60.02;94969.91;4929154;29;20042;-78
2021/06/18 07:48:57;;;;;;;6.53;5.93;;;;;;;25.55;59.56;94961.94;4948219;29;20027;-77
2021/06/18 07:51:23;;;;;;;6.82;5.82;;;;;;;24.83;60.81;94963.78;4933434;29;20126;-87
2021/06/18 07:53:48;;;;;;;6.80;5.97;;;;;;;25.58;61.80;94961.41;4932695;29;20023;-78
2021/06/18 07:56:22;;;;;;;6.85;5.85;;;;;;;25.13;61.58;94969.22;4932162;29;20027;-78
2021/06/18 07:58:48;;;;;;;8.32;6.75;;;;;;;24.90;63.20;94964.34;4949194;29;20027;-82
2021/06/18 08:01:14;;;;;;;7.10;6.40;;;;;;;26.43;61.94;94964.28;4951741;28;20050;-79
2021/06/18 08:03:40;;;;;;;7.78;7.07;;;;;;;27.28;58.50;94957.91;4970446;28;20026;-79
2021/06/18 08:06:05;;;;;;;6.45;5.85;;;;;;;26.88;58.00;94950.09;4934915;28;20031;-83
2021/06/18 08:08:31;;;;;;;6.47;5.88;;;;;;;27.32;56.59;94956.28;4952784;28;20026;-79
2021/06/18 08:10:56;;;;;;;7.70;6.72;;;;;;;27.10;57.27;94948.66;4935160;28;20059;-88
2021/06/18 08:13:22;;;;;;;7.63;6.80;;;;;;;25.60;60.71;94950.50;4920897;28;20045;-76
2021/06/18 08:15:47;;;;;;;9.10;7.07;;;;;;;24.54;62.72;94955.41;4936190;28;20031;-82
2021/06/18 08:18:13;;;;;;;7.97;6.60;;;;;;;25.29;63.43;94952.28;4919827;28;20502;-83
2021/06/18 08:20:38;;;;;;;7.63;7.00;;;;;;;25.32;60.37;94941.16;4952618;28;20031;-81
2021/06/18 08:23:04;;;;;;;8.43;7.40;;;;;;;26.16;60.90;94956.66;4951244;28;20038;-87
2021/06/18 08:25:29;;;;;;;8.52;7.28;;;;;;;25.65;59.54;94955.84;4965753;28;20090;-84
2021/06/18 08:27:55;;;;;;;6.28;5.78;;;;;;;26.11;60.26;94948.63;4933403;29;20031;-85
2021/06/18 08:30:20;;;;;;;7.60;6.90;;;;;;;27.06;58.11;94949.50;4935569;28;20032;-84
2021/06/18 08:32:46;;;;;;;6.97;6.38;;;;;;;28.34;55.04;94951.03;4932675;29;20106;-90
2021/06/18 08:35:11;;;;;;;6.72;5.82;;;;;;;28.88;55.09;94948.88;4919060;28;20023;-75
2021/06/18 08:37:37;;;;;;;5.22;4.82;;;;;;;29.18;52.62;94945.03;4940407;28;20469;-87
2021/06/18 08:40:03;;;;;;;5.97;5.20;;;;;;;29.03;52.75;94940.66;4947149;28;20026;-76
2021/06/18 08:42:29;;;;;;;6.93;4.50;;;;;;;29.27;52.12;94943.34;4960419;28;20097;-88
2021/06/18 08:44:54;;;;;;;6.45;5.18;;;;;;;29.47;53.00;94937.72;4931869;29;20476;-87
2021/06/18 08:47:20;;;;;;;8.55;5.05;;;;;;;28.50;52.98;94939.94;4934025;29;20031;-82
2021/06/18 08:49:45;;;;;;;5.13;4.63;;;;;;;29.11;52.91;94936.56;4916081;29;20481;-88
2021/06/18 08:52:11;;;;;;;4.88;4.38;;;;;;;29.35;49.78;94937.34;4918062;29;20038;-78
2021/06/18 08:54:42;;;;;;;4.05;3.67;;;;;;;28.51;52.89;94928.16;4916299;29;20478;-81
2021/06/18 08:57:15;;;;;;;4.70;3.95;;;;;;;29.08;52.71;94929.16;4933397;29;20407;-86
2021/06/18 08:59:41;;;;;;;4.50;4.18;;;;;;;28.65;52.31;94928.28;4933521;29;20023;-79
2021/06/18 09:02:06;;;;;;;6.90;4.85;;;;;;;27.16;56.03;94928.19;4911338;29;20062;-81
2021/06/18 09:04:32;;;;;;;5.78;3.63;;;;;;;27.03;55.24;94918.94;4929935;29;20401;-80
2021/06/18 09:07:00;;;;;;;4.05;3.75;;;;;;;27.59;56.68;94916.75;4911837;29;20489;-84
2021/06/18 09:09:31;;;;;;;4.28;3.88;;;;;;;27.55;56.01;94921.00;4913839;29;20110;-82
2021/06/18 09:12:01;;;;;;;3.20;3.00;;;;;;;27.42;56.39;94916.28;4916053;29;20119;-79
2021/06/18 09:14:37;;;;;;;3.95;3.65;;;;;;;27.16;55.47;94912.97;4923682;29;20034;-82
2021/06/18 09:17:22;;;;;;;6.03;3.80;;;;;;;26.99;56.51;94915.22;4922179;29;20110;-81
2021/06/18 09:19:49;;;;;;;3.85;3.55;;;;;;;26.37;58.39;94914.88;4940649;29;20027;-84
2021/06/18 09:22:24;;;;;;;9.70;4.35;;;;;;;25.15;61.46;94909.56;4938932;29;20058;-83
2021/06/18 09:25:10;;;;;;;5.35;4.70;;;;;;;25.30;62.47;94911.44;4948486;29;20038;-80
2021/06/18 09:27:49;;;;;;;5.22;4.47;;;;;;;25.55;61.63;94913.38;4933092;29;20031;-81
2021/06/18 09:30:22;;;;;;;5.65;4.63;;;;;;;25.17;62.28;94907.44;4901498;29;20035;-79
2021/06/18 09:33:05;;;;;;;4.97;4.50;;;;;;;25.67;60.72;94906.72;4938737;29;20046;-85
2021/06/18 09:35:31;;;;;;;4.82;4.38;;;;;;;26.04;61.69;94905.66;4918337;29;20501;-87
2021/06/18 09:37:58;;;;;;;6.30;5.22;;;;;;;25.15;62.68;94898.16;4930872;29;20031;-79
2021/06/18 09:40:24;;;;;;;5.10;4.70;;;;;;;24.86;63.14;94904.97;4915117;29;20032;-77
2021/06/18 09:42:56;;;;;;;4.72;4.32;;;;;;;25.42;62.88;94904.03;4948503;29;20061;-86
2021/06/18 09:45:28;;;;;;;4.82;4.32;;;;;;;25.40;61.82;94905.34;4914412;29;20429;-84
2021/06/18 09:48:12;;;;;;;5.07;4.57;;;;;;;25.68;63.08;94913.63;4932145;29;20512;-83
2021/06/18 09:50:41;;;;;;;5.43;4.97;;;;;;;25.00;62.79;94893.63;4947301;28;20683;-80
2021/06/18 09:53:24;;;;;;;5.25;4.75;;;;;;;24.96;64.09;94899.69;4946700;29;20118;-80
2021/06/18 09:56:10;;;;;;;5.55;4.30;;;;;;;26.17;62.24;94894.47;4931920;29;20035;-82
2021/06/18 09:58:37;;;;;;;4.30;3.80;;;;;;;26.39;57.89;94889.66;4946577;29;20027;-89
2021/06/18 10:01:24;;;;;;;4.63;3.83;;;;;;;26.75;60.94;94884.97;4939132;29;20036;-83
2021/06/18 10:04:02;;;;;;;6.95;4.30;;;;;;;26.90;58.15;94873.53;4912412;29;20568;-82
2021/06/18 10:06:28;;;;;;;5.88;3.85;;;;;;;27.04;59.53;94888.59;4911960;29;20020;-78
2021/06/18 10:08:54;;;;;;;4.57;3.97;;;;;;;27.14;58.10;94883.22;4912737;29;20043;-83
2021/06/18 10:11:19;;;;;;;5.32;3.80;;;;;;;27.23;59.84;94886.06;4878858;29;20493;-82
2021/06/18 10:13:45;;;;;;;3.63;3.33;;;;;;;27.46;56.29;94885.41;4896988;29;20063;-83
2021/06/18 10:16:13;;;;;;;3.30;3.03;;;;;;;27.82;56.98;94887.78;4902588;29;20053;-81
2021/06/18 10:18:39;;;;;;;5.18;3.38;;;;;;;27.88;58.81;94886.69;4916479;29;20572;-81
2021/06/18 10:21:04;;;;;;;3.60;3.30;;;;;;;27.73;58.73;94890.28;4929794;29;20023;-83
2021/06/18 10:23:30;;;;;;;3.28;2.17;;;;;;;27.89;55.69;94878.41;4930809;29;20468;-80
2021/06/18 10:25:59;;;;;;;2.40;2.20;;;;;;;27.45;55.58;94883.06;4915046;29;20583;-80
2021/06/18 10:28:33;;;;;;;2.50;2.30;;;;;;;27.20;55.94;94876.78;4914235;29;20268;-81
2021/06/18 10:30:59;;;;;;;3.42;2.38;;;;;;;27.25;58.48;94875.97;4931071;29;20042;-76
2021/06/18 10:33:28;;;;;;;2.50;2.28;;;;;;;27.58;56.93;94875.22;4929848;29;20595;-79
2021/06/18 10:36:01;;;;;;;3.40;1.98;;;;;;;27.77;54.06;94865.47;4948075;29;20027;-80
2021/06/18 10:38:28;;;;;;;2.25;1.80;;;;;;;26.73;54.85;94866.66;4931153;29;20035;-79
2021/06/18 10:40:54;;;;;;;2.17;2.03;;;;;;;26.40;57.32;94864.66;4929970;29;20027;-80
2021/06/18 10:43:20;;;;;;;2.65;1.67;;;;;;;25.99;58.45;94868.47;4919459;28;20042;-81
2021/06/18 10:46:05;;;;;;;3.00;2.10;;;;;;;26.19;58.69;94865.81;4919534;28;20560;-78
2021/06/18 10:48:46;;;;;;;2.30;2.05;;;;;;;25.88;57.70;94856.28;4943159;28;20508;-83
2021/06/18 10:51:27;;;;;;;2.28;2.08;;;;;;;25.31;60.94;94857.34;4932952;28;20714;-81
2021/06/18 10:54:01;;;;;;;2.35;2.15;;;;;;;25.20;58.74;94847.00;4951457;28;20054;-81
2021/06/18 10:57:03;;;;;;;1.83;1.73;;;;;;;25.71;60.75;94840.66;4918930;28;20051;-81
2021/06/18 10:59:51;;;;;;;1.98;1.88;;;;;;;25.25;58.40;94837.19;4960000;28;20560;-79
2021/06/18 11:04:53;;;;;;;1.88;1.77;;;;;;;25.12;58.43;94835.03;4950006;29;20035;-82
2021/06/18 11:07:27;;;;;;;2.92;1.75;;;;;;;25.25;61.42;94845.13;4932298;29;20489;-80
2021/06/18 11:09:56;;;;;;;1.70;1.60;;;;;;;25.16;61.75;94839.56;4903910;29;20039;-79
2021/06/18 11:12:25;;;;;;;2.13;1.67;;;;;;;25.26;60.92;94835.31;4916581;29;20520;-80
2021/06/18 11:14:54;;;;;;;6.30;1.88;;;;;;;25.17;59.66;94835.84;4934732;29;20532;-81
2021/06/18 11:17:52;;;;;;;1.98;1.60;;;;;;;24.99;62.26;94835.56;4932990;29;20082;-80
2021/06/18 11:20:34;;;;;;;1.50;1.40;;;;;;;24.58;62.80;94838.09;4927828;29;20524;-82
2021/06/18 11:23:12;;;;;;;3.83;2.05;;;;;;;24.42;62.11;94823.19;4936431;29;20027;-79
2021/06/18 11:31:17;;;;;;;1.70;1.58;;;;;;;24.72;61.42;94819.06;4951145;29;20105;-80
2021/06/18 11:33:45;;;;;;;2.08;1.92;;;;;;;24.96;63.91;94825.47;4950006;29;20390;-81
2021/06/18 11:36:24;;;;;;;1.52;1.42;;;;;;;25.11;61.54;94815.69;4951270;29;20126;-81
2021/06/18 11:38:58;;;;;;;2.00;1.80;;;;;;;25.24;61.81;94818.88;4949888;29;20066;-80
2021/06/18 11:41:25;;;;;;;6.28;2.17;;;;;;;24.94;61.65;94820.47;4934130;29;20500;-80
2021/06/18 11:43:52;;;;;;;3.00;1.95;;;;;;;24.86;64.54;94822.81;4918065;29;20031;-80
2021/06/18 11:46:22;;;;;;;2.17;2.00;;;;;;;23.94;65.32;94828.78;4931639;28;20035;-80
2021/06/18 11:48:48;;;;;;;2.40;2.20;;;;;;;24.02;64.45;94820.34;4937163;28;20032;-78
2021/06/18 11:51:23;;;;;;;2.88;2.40;;;;;;;24.26;64.80;94815.47;4904800;28;20027;-83
2021/06/18 11:53:49;;;;;;;6.93;2.38;;;;;;;24.58;62.90;94806.31;4960465;28;20027;-84
2021/06/18 11:56:15;;;;;;;3.15;2.10;;;;;;;24.93;62.31;94807.44;4916324;29;20023;-82
2021/06/18 11:58:42;;;;;;;2.45;2.25;;;;;;;24.70;61.89;94810.56;4914477;29;20417;-80
2021/06/18 12:01:14;;;;;;;2.58;2.10;;;;;;;24.61;63.59;94805.78;4929960;29;20072;-83
2021/06/18 12:03:41;;;;;;;2.72;2.10;;;;;;;24.13;64.68;94806.94;4898111;29;20028;-85
2021/06/18 12:06:15;;;;;;;2.85;2.20;;;;;;;23.93;66.88;94816.59;4915111;29;20034;-81
2021/06/18 12:08:56;;;;;;;2.78;2.17;;;;;;;23.82;67.37;94812.31;4928285;29;20031;-80
2021/06/18 12:11:22;;;;;;;3.13;2.33;;;;;;;23.63;66.64;94809.28;4929982;29;20032;-79
2021/06/18 12:14:07;;;;;;;3.80;2.53;;;;;;;23.34;67.77;94813.28;4929193;29;20501;-77
2021/06/18 12:20:03;;;;;;;3.65;2.22;;;;;;;23.91;66.53;94800.19;4932280;29;20042;-81
2021/06/18 12:22:30;;;;;;;2.58;2.30;;;;;;;24.28;66.06;94808.84;4914646;29;20097;-80
2021/06/18 12:24:57;;;;;;;2.53;2.33;;;;;;;24.72;62.75;94803.97;4913868;29;20035;-83
2021/06/18 12:27:31;;;;;;;3.17;2.88;;;;;;;24.48;64.68;94798.31;4914416;29;20040;-81
2021/06/18 12:30:26;;;;;;;1.90;1.80;;;;;;;24.75;63.25;94799.97;4950497;28;20547;-81
2021/06/18 12:32:52;;;;;;;2.78;2.35;;;;;;;24.30;64.25;94798.81;4921072;29;20142;-81
2021/06/18 12:35:20;;;;;;;2.40;2.20;;;;;;;24.53;64.47;94803.63;4933438;28;20476;-82
2021/06/18 12:37:51;;;;;;;2.63;1.90;;;;;;;24.44;62.73;94797.25;4951915;28;20019;-87
2021/06/18 12:40:27;;;;;;;1.60;1.50;;;;;;;24.64;61.65;94799.94;4953289;28;20069;-84
2021/06/18 12:42:53;;;;;;;1.70;1.60;;;;;;;24.79;59.50;94793.88;4920503;28;20030;-84
2021/06/18 12:45:20;;;;;;;1.98;1.50;;;;;;;24.87;60.10;94798.72;4936942;28;20026;-84
2021/06/18 12:47:47;;;;;;;1.40;1.30;;;;;;;25.03;58.05;94795.00;4951400;28;20038;-76
2021/06/18 12:50:32;;;;;;;1.40;1.30;;;;;;;25.03;59.17;94800.31;4937129;28;20046;-80
2021/06/18 12:53:08;;;;;;;1.33;1.23;;;;;;;25.26;57.85;94793.69;4935641;28;20037;-76
2021/06/18 12:55:39;;;;;;;1.17;1.10;;;;;;;25.55;55.87;94794.75;4936236;28;20514;-80
2021/06/18 12:58:06;;;;;;;1.40;1.30;;;;;;;25.79;56.63;94792.31;4937484;28;20022;-78
2021/06/18 13:00:43;;;;;;;1.30;1.17;;;;;;;26.10;55.40;94793.81;4920257;28;20543;-71
2021/06/18 13:03:09;;;;;;;1.05;1.00;;;;;;;26.48;53.64;94800.34;4952945;28;20505;-92
2021/06/18 13:05:34;;;;;;;1.45;1.27;;;;;;;26.37;54.13;94796.13;4945091;28;20031;-85
2021/06/18 13:08:00;;;;;;;1.42;1.30;;;;;;;26.09;55.61;94789.59;4928792;29;20035;-85
2021/06/18 13:10:46;;;;;;;1.20;1.10;;;;;;;26.14;54.54;94794.06;4932501;29;20031;-73
2021/06/18 13:13:31;;;;;;;1.05;1.05;;;;;;;25.99;53.69;94792.25;4929656;28;20105;-91
2021/06/18 13:16:09;;;;;;;2.63;1.48;;;;;;;25.68;54.60;94791.56;4938158;29;20031;-74
2021/06/18 13:18:57;;;;;;;2.42;1.05;;;;;;;25.43;56.33;94791.53;4950094;28;20015;-73
2021/06/18 13:21:40;;;;;;;1.58;1.10;;;;;;;25.25;56.09;94781.47;4940911;28;20517;-87
2021/06/18 13:24:17;;;;;;;1.25;1.10;;;;;;;24.82;56.78;94787.31;4916912;29;20424;-87
2021/06/18 13:26:43;;;;;;;1.05;1.05;;;;;;;24.49;57.27;94791.19;4925715;28;20417;-76
2021/06/18 13:29:16;;;;;;;3.90;1.17;;;;;;;24.40;60.61;94787.44;4922088;29;20456;-89
2021/06/18 13:31:44;;;;;;;1.13;1.08;;;;;;;23.99;60.51;94799.69;4908122;29;20122;-91
2021/06/18 13:34:10;;;;;;;1.17;1.08;;;;;;;23.44;62.11;94795.66;4908971;28;20089;-83
2021/06/18 13:36:39;;;;;;;2.17;1.20;;;;;;;23.41;63.56;94798.00;4928893;28;20030;-81
2021/06/18 13:39:34;;;;;;;1.50;1.40;;;;;;;23.41;65.50;94811.22;4924748;28;20504;-82
2021/06/18 13:42:00;;;;;;;2.50;2.30;;;;;;;23.54;66.11;94814.25;4926247;28;20039;-76
2021/06/18 13:44:28;;;;;;;2.42;2.22;;;;;;;23.39;66.76;94808.81;4929265;29;20520;-77
2021/06/18 13:46:54;;;;;;;2.30;1.67;;;;;;;23.06;66.80;94803.78;4927411;28;20053;-78
2021/06/18 13:49:19;;;;;;;1.90;1.80;;;;;;;23.24;68.44;94808.72;4908278;29;20714;-79
2021/06/18 13:51:45;;;;;;;1.65;1.50;;;;;;;23.12;72.12;94813.34;4909432;29;20102;-77
2021/06/18 13:54:11;;;;;;;2.30;2.10;;;;;;;22.84;74.38;94816.28;4930878;29;20658;-77
2021/06/18 13:56:38;;;;;;;2.13;1.70;;;;;;;23.31;72.20;94817.22;4923896;29;20579;-75
2021/06/18 13:59:05;;;;;;;1.90;1.80;;;;;;;23.35;72.98;94820.94;4958065;28;20069;-75
2021/06/18 14:01:30;;;;;;;2.13;1.88;;;;;;;22.81;75.75;94827.34;4944132;28;20051;-77
2021/06/18 14:04:14;;;;;;;1.88;1.70;;;;;;;22.73;76.06;94825.16;4931016;29;20027;-75
2021/06/18 14:06:40;;;;;;;5.07;2.35;;;;;;;22.06;78.05;94818.28;4936023;28;20031;-76
2021/06/18 14:09:06;;;;;;;3.28;1.70;;;;;;;22.48;77.70;94820.34;4918224;28;20388;-75
2021/06/18 14:11:32;;;;;;;3.42;2.20;;;;;;;22.18;77.69;94820.03;4912063;29;20028;-76
2021/06/18 14:14:01;;;;;;;2.88;2.50;;;;;;;22.12;79.35;94799.91;4902493;29;20032;-75
2021/06/18 14:16:45;;;;;;;2.45;2.30;;;;;;;22.25;78.82;94818.78;4932222;29;20039;-75
2021/06/18 14:19:11;;;;;;;3.17;2.60;;;;;;;22.07;78.94;94821.72;4924992;28;20043;-75
2021/06/18 14:21:37;;;;;;;2.60;2.40;;;;;;;21.37;82.55;94813.59;4956003;28;20031;-78
2021/06/18 14:24:04;;;;;;;2.70;2.45;;;;;;;21.35;82.79;94816.47;4920072;28;20027;-75
2021/06/18 14:26:30;;;;;;;2.55;2.33;;;;;;;21.68;82.90;94814.84;4917020;29;20041;-75
2021/06/18 14:28:55;;;;;;;2.33;2.15;;;;;;;21.81;82.33;94815.28;4916377;28;20026;-75
2021/06/18 14:31:22;;;;;;;2.55;1.85;;;;;;;21.72;82.34;94810.69;4931509;28;20023;-75
2021/06/18 14:33:47;;;;;;;3.35;2.33;;;;;;;21.09;83.66;94817.13;4918541;28;20105;-83
2021/06/18 14:36:14;;;;;;;2.72;2.20;;;;;;;20.68;85.65;94810.31;4917191;29;20031;-75
2021/06/18 14:38:39;;;;;;;2.10;2.00;;;;;;;21.15;84.76;94810.91;4931143;29;20057;-74
2021/06/18 14:41:04;;;;;;;2.35;2.15;;;;;;;20.96;85.06;94804.25;4946575;29;20456;-74
2021/06/18 14:43:30;;;;;;;4.63;2.25;;;;;;;20.83;85.93;94802.72;4929944;29;20035;-74
2021/06/18 14:45:55;;;;;;;2.85;2.55;;;;;;;20.83;85.17;94805.34;4903993;28;20034;-74
2021/06/18 14:48:21;;;;;;;2.65;2.42;;;;;;;20.61;84.23;94806.25;4923261;29;20024;-75
2021/06/18 14:50:48;;;;;;;2.58;2.38;;;;;;;20.62;86.39;94806.00;4898105;28;20083;-74
2021/06/18 14:53:14;;;;;;;3.42;2.20;;;;;;;20.73;86.63;94805.16;4947048;28;20058;-74
2021/06/18 14:55:39;;;;;;;2.47;2.28;;;;;;;20.74;86.29;94806.75;4939664;29;20062;-74
2021/06/18 14:58:05;;;;;;;3.08;2.85;;;;;;;20.60;87.03;94799.38;4913194;29;20022;-74
2021/06/18 15:00:30;;;;;;;2.50;2.30;;;;;;;20.59;88.65;94795.94;4947399;29;20544;-74
2021/06/18 15:02:56;;;;;;;7.20;2.90;;;;;;;20.78;88.29;94791.28;4914138;29;20098;-73
2021/06/18 15:05:21;;;;;;;2.75;2.53;;;;;;;20.73;88.32;94784.09;4913307;29;20039;-74
2021/06/18 15:07:47;;;;;;;4.15;2.50;;;;;;;21.01;86.45;94794.56;4930770;29;20413;-75
2021/06/18 15:10:13;;;;;;;2.22;2.05;;;;;;;21.12;86.16;94787.66;4912435;29;20027;-74
2021/06/18 15:12:38;;;;;;;2.60;2.40;;;;;;;21.17;86.65;94785.09;4897439;28;20050;-74
2021/06/18 15:15:04;;;;;;;6.55;2.45;;;;;;;21.22;87.04;94789.66;4922647;28;20046;-75
2021/06/18 15:17:30;;;;;;;2.63;2.42;;;;;;;21.22;86.92;94787.03;4932793;29;20074;-74
2021/06/18 15:19:55;;;;;;;2.80;2.55;;;;;;;21.12;86.71;94782.41;4939393;28;20417;-75
2021/06/18 15:22:21;;;;;;;4.05;2.90;;;;;;;21.13;86.96;94781.34;4915465;29;20027;-74
2021/06/18 15:24:46;;;;;;;3.35;2.95;;;;;;;21.23;86.49;94776.22;4929218;29;20032;-73
2021/06/18 15:27:12;;;;;;;4.70;2.63;;;;;;;21.13;84.47;94767.41;4928059;29;20035;-74
2021/06/18 15:29:38;;;;;;;2.85;2.47;;;;;;;21.15;84.79;94760.03;4930498;29;20303;-75
2021/06/18 15:32:04;;;;;;;2.67;2.40;;;;;;;21.14;84.40;94759.25;4912022;29;20070;-76
2021/06/18 15:34:29;;;;;;;2.03;1.92;;;;;;;21.22;83.85;94756.22;4930254;29;20035;-74
2021/06/18 15:36:55;;;;;;;2.03;1.70;;;;;;;21.10;83.28;94752.03;4925832;28;20112;-75
2021/06/18 15:39:21;;;;;;;2.50;2.03;;;;;;;21.07;82.22;94753.31;4933897;28;20031;-73
2021/06/18 15:41:46;;;;;;;1.98;1.88;;;;;;;20.93;81.55;94752.81;4926094;28;20023;-74
2021/06/18 15:44:14;;;;;;;2.20;1.60;;;;;;;20.99;79.77;94753.72;4937410;28;20091;-76
2021/06/18 15:46:40;;;;;;;2.00;1.88;;;;;;;20.96;79.44;94746.28;4929463;28;20035;-75
2021/06/18 15:49:07;;;;;;;2.38;1.83;;;;;;;20.93;79.83;94757.31;4941329;29;20397;-76
2021/06/18 15:51:33;;;;;;;3.13;1.98;;;;;;;20.89;77.85;94758.81;4906682;29;20126;-72
2021/06/18 15:53:59;;;;;;;1.60;1.50;;;;;;;20.70;78.55;94762.72;4912931;29;20023;-74
2021/06/18 15:56:24;;;;;;;1.52;1.42;;;;;;;20.65;78.49;94755.50;4929976;29;20044;-77
2021/06/18 15:58:49;;;;;;;1.55;1.45;;;;;;;20.57;79.41;94755.13;4926366;28;20126;-76
2021/06/18 16:01:15;;;;;;;3.75;1.45;;;;;;;20.63;77.82;94754.16;4935310;28;20050;-76
2021/06/18 16:03:41;;;;;;;1.70;1.60;;;;;;;20.55;77.87;94747.44;4923044;28;20043;-75
2021/06/18 16:06:06;;;;;;;2.30;1.80;;;;;;;20.61;78.56;94743.88;4907490;28;20035;-75
2021/06/18 16:08:32;;;;;;;1.77;1.67;;;;;;;20.56;77.60;94743.78;4925054;28;20067;-76
2021/06/18 16:10:58;;;;;;;1.70;1.60;;;;;;;20.56;77.39;94740.34;4941689;28;20026;-76
2021/06/18 16:13:23;;;;;;;1.73;1.63;;;;;;;20.81;78.28;94746.03;4904285;29;20020;-76
2021/06/18 16:15:49;;;;;;;7.45;2.03;;;;;;;20.82;77.47;94742.38;4944863;28;20523;-75
2021/06/18 16:18:14;;;;;;;1.85;1.75;;;;;;;20.72;77.30;94737.75;4926298;28;20077;-75
2021/06/18 16:20:40;;;;;;;2.03;1.73;;;;;;;20.86;77.07;94744.31;4925855;28;20037;-77
2021/06/18 16:23:06;;;;;;;2.03;1.75;;;;;;;20.89;76.53;94729.84;4937818;29;20027;-78
2021/06/18 16:25:32;;;;;;;5.22;2.00;;;;;;;21.10;77.87;94749.41;4904733;28;20047;-78
2021/06/18 16:27:57;;;;;;;6.43;1.90;;;;;;;21.23;79.16;94743.81;4939679;28;20035;-78
2021/06/18 16:30:23;;;;;;;1.77;1.67;;;;;;;21.41;79.80;94747.00;4936092;28;20031;-78
2021/06/18 16:32:48;;;;;;;3.22;2.25;;;;;;;21.18;76.77;94735.84;4930868;28;20035;-77
2021/06/18 16:35:14;;;;;;;2.45;2.25;;;;;;;21.02;78.41;94737.44;4925068;28;20027;-76
2021/06/18 16:37:40;;;;;;;4.05;2.42;;;;;;;21.00;79.52;94732.38;4937992;28;20400;-77
2021/06/18 16:40:06;;;;;;;1.75;1.50;;;;;;;21.09;79.27;94742.53;4938846;28;20090;-76
2021/06/18 16:42:32;;;;;;;1.77;1.67;;;;;;;21.00;80.11;94750.03;4957364;28;20035;-77
2021/06/18 16:44:57;;;;;;;2.00;1.38;;;;;;;20.93;78.47;94744.91;4937399;28;20020;-77
2021/06/18 16:47:23;;;;;;;1.45;1.35;;;;;;;20.85;79.22;94737.44;4926237;29;20036;-76
2021/06/18 16:49:48;;;;;;;1.67;1.58;;;;;;;20.90;78.80;94737.50;4927144;28;20027;-77